Disclaimer

Please do not use the information listed here in-flight or in-navigation, as they are not provided to us by the airports but are provided by volunteers, so they might be outdated.

Search


Regions


Airport information page

Radio informations:
Tower (TWR) - 122.1 MHz
Ground (GND) - 122.1 MHz
Director (DIR) - 275.85 MHz
DEP - 118.55 MHz
Automatic Terminal Information Service (ATIS) - 283.725 MHz
Approach (APP) - 118.55 MHz
INFO - 118.55 MHz
ZONE - 235.2 MHz

Airport informations:
Latitude: 54° 02' 56.08" N
Longitude: 001° 15' 09.89" W
Elevation: 53 feet - 16 meters
Operating hours: Remarks
Operating agency: Military
Timezone: UTC 0(+1DT) - Last Sunday in March to last Sunday in October
Fuel: JP-8, SemiKeroscene MIL Spec T-83133, without icing inhibitor

100/130 MIL Spec, low lead, aviation gasoline (BLUE)

Runway information:
04/22 - 6020 x 150 feet< - >1835 x 46 meters
10/28 - 4394 x 150 feet< - >1339 x 46 meters

Recent METARs:
EGXU 160550Z AUTO 13005KT 1300 // BKN003/// SCT023/// 10/10 Q1023
EGXU 160650Z 14007KT 1000 0500N PRFG BR OVC002 11/10 Q1023 RED TEMPO 1000 BR AMB

Airport on the map: